sensor_id;sensor_type;location;lat;lon;timestamp;P1;durP1;ratioP1;P2;durP2;ratioP2
11431;SDS011;5772;50.940;6.782;2022-12-07T00:00:25;43.47;;;39.97;;
11431;SDS011;5772;50.940;6.782;2022-12-07T00:02:52;43.37;;;40.10;;
11431;SDS011;5772;50.940;6.782;2022-12-07T00:05:17;40.73;;;37.83;;
11431;SDS011;5772;50.940;6.782;2022-12-07T00:07:43;41.47;;;37.67;;
11431;SDS011;5772;50.940;6.782;2022-12-07T00:10:08;39.77;;;36.40;;
11431;SDS011;5772;50.940;6.782;2022-12-07T00:12:34;42.67;;;39.07;;
11431;SDS011;5772;50.940;6.782;2022-12-07T00:14:59;40.17;;;36.70;;
11431;SDS011;5772;50.940;6.782;2022-12-07T00:17:25;42.17;;;38.67;;
11431;SDS011;5772;50.940;6.782;2022-12-07T00:19:51;39.77;;;36.50;;
11431;SDS011;5772;50.940;6.782;2022-12-07T00:22:17;41.60;;;38.27;;
11431;SDS011;5772;50.940;6.782;2022-12-07T00:24:42;42.83;;;39.40;;
11431;SDS011;5772;50.940;6.782;2022-12-07T00:27:07;42.17;;;38.80;;
11431;SDS011;5772;50.940;6.782;2022-12-07T00:29:33;43.73;;;40.37;;
11431;SDS011;5772;50.940;6.782;2022-12-07T00:31:58;45.03;;;41.70;;
11431;SDS011;5772;50.940;6.782;2022-12-07T00:34:23;48.53;;;44.93;;
11431;SDS011;5772;50.940;6.782;2022-12-07T00:36:50;48.67;;;45.07;;
11431;SDS011;5772;50.940;6.782;2022-12-07T00:39:16;47.50;;;43.47;;
11431;SDS011;5772;50.940;6.782;2022-12-07T00:41:41;44.30;;;41.30;;
11431;SDS011;5772;50.940;6.782;2022-12-07T00:44:07;47.97;;;44.20;;
11431;SDS011;5772;50.940;6.782;2022-12-07T00:46:32;43.20;;;40.17;;
11431;SDS011;5772;50.940;6.782;2022-12-07T00:48:58;46.03;;;42.80;;
11431;SDS011;5772;50.940;6.782;2022-12-07T00:51:24;45.97;;;42.43;;
11431;SDS011;5772;50.940;6.782;2022-12-07T00:53:52;45.17;;;41.77;;
11431;SDS011;5772;50.940;6.782;2022-12-07T00:56:18;44.70;;;41.50;;
11431;SDS011;5772;50.940;6.782;2022-12-07T00:58:44;42.27;;;38.90;;
11431;SDS011;5772;50.940;6.782;2022-12-07T01:01:14;45.43;;;41.60;;
11431;SDS011;5772;50.940;6.782;2022-12-07T01:03:40;42.30;;;38.90;;
11431;SDS011;5772;50.940;6.782;2022-12-07T01:06:05;42.57;;;39.03;;
11431;SDS011;5772;50.940;6.782;2022-12-07T13:37:56;40.60;;;38.13;;
11431;SDS011;5772;50.940;6.782;2022-12-07T13:40:22;33.43;;;31.63;;
11431;SDS011;5772;50.940;6.782;2022-12-07T13:42:56;32.37;;;30.40;;
11431;SDS011;5772;50.940;6.782;2022-12-07T13:45:23;29.27;;;27.57;;
11431;SDS011;5772;50.940;6.782;2022-12-07T13:47:51;29.80;;;27.90;;
11431;SDS011;5772;50.940;6.782;2022-12-07T13:50:22;30.97;;;29.37;;
11431;SDS011;5772;50.940;6.782;2022-12-07T13:52:50;32.23;;;30.53;;
11431;SDS011;5772;50.940;6.782;2022-12-07T13:55:20;32.53;;;30.77;;
11431;SDS011;5772;50.940;6.782;2022-12-07T13:57:45;29.50;;;27.57;;
11431;SDS011;5772;50.940;6.782;2022-12-07T14:02:53;32.40;;;30.73;;
11431;SDS011;5772;50.940;6.782;2022-12-07T14:05:23;32.47;;;30.63;;
11431;SDS011;5772;50.940;6.782;2022-12-07T14:07:55;30.10;;;28.50;;
11431;SDS011;5772;50.940;6.782;2022-12-07T14:10:24;32.73;;;30.87;;
11431;SDS011;5772;50.940;6.782;2022-12-07T14:12:50;35.33;;;33.23;;
11431;SDS011;5772;50.940;6.782;2022-12-07T14:15:19;33.23;;;31.10;;
11431;SDS011;5772;50.940;6.782;2022-12-07T14:17:49;36.40;;;34.33;;
11431;SDS011;5772;50.940;6.782;2022-12-07T14:22:57;36.37;;;34.07;;
11431;SDS011;5772;50.940;6.782;2022-12-07T14:25:23;32.90;;;30.80;;
11431;SDS011;5772;50.940;6.782;2022-12-07T14:27:51;33.53;;;31.50;;
11431;SDS011;5772;50.940;6.782;2022-12-07T14:30:18;32.30;;;30.63;;
11431;SDS011;5772;50.940;6.782;2022-12-07T14:32:44;32.57;;;30.67;;
11431;SDS011;5772;50.940;6.782;2022-12-07T14:35:17;34.70;;;32.73;;
11431;SDS011;5772;50.940;6.782;2022-12-07T14:37:44;33.47;;;31.27;;
11431;SDS011;5772;50.940;6.782;2022-12-07T14:40:14;35.70;;;33.80;;
11431;SDS011;5772;50.940;6.782;2022-12-07T14:42:41;34.03;;;32.23;;
11431;SDS011;5772;50.940;6.782;2022-12-07T14:45:11;35.80;;;33.80;;
11431;SDS011;5772;50.940;6.782;2022-12-07T14:47:38;34.10;;;32.07;;
11431;SDS011;5772;50.940;6.782;2022-12-07T14:50:04;36.53;;;34.50;;
11431;SDS011;5772;50.940;6.782;2022-12-07T14:52:30;37.93;;;35.80;;
11431;SDS011;5772;50.940;6.782;2022-12-07T14:54:56;41.87;;;39.77;;
11431;SDS011;5772;50.940;6.782;2022-12-07T14:57:22;45.93;;;42.63;;
11431;SDS011;5772;50.940;6.782;2022-12-07T14:59:48;40.97;;;38.67;;
11431;SDS011;5772;50.940;6.782;2022-12-07T15:02:14;45.57;;;43.17;;
11431;SDS011;5772;50.940;6.782;2022-12-07T15:04:39;44.30;;;41.70;;
11431;SDS011;5772;50.940;6.782;2022-12-07T15:07:08;46.60;;;44.17;;
11431;SDS011;5772;50.940;6.782;2022-12-07T15:09:35;44.07;;;41.83;;
11431;SDS011;5772;50.940;6.782;2022-12-07T15:12:00;44.50;;;42.03;;
11431;SDS011;5772;50.940;6.782;2022-12-07T15:14:27;41.80;;;39.43;;
11431;SDS011;5772;50.940;6.782;2022-12-07T15:16:52;39.73;;;37.27;;
11431;SDS011;5772;50.940;6.782;2022-12-07T15:19:18;42.77;;;40.37;;
11431;SDS011;5772;50.940;6.782;2022-12-07T15:21:45;43.60;;;41.17;;
11431;SDS011;5772;50.940;6.782;2022-12-07T15:24:10;49.57;;;47.03;;
11431;SDS011;5772;50.940;6.782;2022-12-07T15:26:36;51.43;;;48.90;;
11431;SDS011;5772;50.940;6.782;2022-12-07T15:29:02;45.13;;;42.63;;
11431;SDS011;5772;50.940;6.782;2022-12-07T15:31:29;49.40;;;46.90;;
11431;SDS011;5772;50.940;6.782;2022-12-07T15:33:55;48.77;;;46.37;;
11431;SDS011;5772;50.940;6.782;2022-12-07T15:36:21;45.73;;;43.73;;
11431;SDS011;5772;50.940;6.782;2022-12-07T15:38:47;42.33;;;40.07;;
11431;SDS011;5772;50.940;6.782;2022-12-07T15:41:13;40.57;;;38.67;;
11431;SDS011;5772;50.940;6.782;2022-12-07T15:43:38;41.60;;;39.40;;
11431;SDS011;5772;50.940;6.782;2022-12-07T15:46:04;31.53;;;30.07;;
11431;SDS011;5772;50.940;6.782;2022-12-07T15:48:30;41.50;;;39.63;;
11431;SDS011;5772;50.940;6.782;2022-12-07T15:51:01;36.60;;;35.00;;
11431;SDS011;5772;50.940;6.782;2022-12-07T15:53:27;39.63;;;37.77;;
11431;SDS011;5772;50.940;6.782;2022-12-07T15:55:52;38.57;;;36.93;;
11431;SDS011;5772;50.940;6.782;2022-12-07T15:58:17;38.87;;;37.27;;
11431;SDS011;5772;50.940;6.782;2022-12-07T16:00:43;33.47;;;32.07;;
11431;SDS011;5772;50.940;6.782;2022-12-07T16:03:08;31.10;;;29.67;;
11431;SDS011;5772;50.940;6.782;2022-12-07T16:05:35;32.90;;;31.50;;
11431;SDS011;5772;50.940;6.782;2022-12-07T16:08:00;33.17;;;31.57;;
11431;SDS011;5772;50.940;6.782;2022-12-07T16:10:26;24.40;;;23.30;;
11431;SDS011;5772;50.940;6.782;2022-12-07T16:12:51;28.90;;;27.63;;
11431;SDS011;5772;50.940;6.782;2022-12-07T16:15:16;29.70;;;28.30;;
11431;SDS011;5772;50.940;6.782;2022-12-07T16:17:42;32.37;;;31.07;;
11431;SDS011;5772;50.940;6.782;2022-12-07T16:20:07;36.57;;;34.70;;
11431;SDS011;5772;50.940;6.782;2022-12-07T16:22:35;35.77;;;34.30;;
11431;SDS011;5772;50.940;6.782;2022-12-07T16:25:00;34.73;;;33.27;;
11431;SDS011;5772;50.940;6.782;2022-12-07T16:27:26;30.47;;;29.17;;
11431;SDS011;5772;50.940;6.782;2022-12-07T16:29:51;29.13;;;27.83;;
11431;SDS011;5772;50.940;6.782;2022-12-07T16:32:17;32.80;;;31.20;;
11431;SDS011;5772;50.940;6.782;2022-12-07T16:34:42;32.10;;;30.73;;
11431;SDS011;5772;50.940;6.782;2022-12-07T16:37:08;35.57;;;33.80;;
11431;SDS011;5772;50.940;6.782;2022-12-07T16:39:34;35.97;;;34.03;;
11431;SDS011;5772;50.940;6.782;2022-12-07T16:42:00;36.40;;;34.60;;
11431;SDS011;5772;50.940;6.782;2022-12-07T16:44:25;37.30;;;35.47;;
11431;SDS011;5772;50.940;6.782;2022-12-07T16:46:51;36.63;;;34.83;;
11431;SDS011;5772;50.940;6.782;2022-12-07T16:49:16;33.53;;;31.83;;
11431;SDS011;5772;50.940;6.782;2022-12-07T16:51:42;35.00;;;33.37;;
11431;SDS011;5772;50.940;6.782;2022-12-07T16:54:08;30.93;;;29.40;;
11431;SDS011;5772;50.940;6.782;2022-12-07T16:56:35;35.37;;;33.60;;
11431;SDS011;5772;50.940;6.782;2022-12-07T16:59:01;37.30;;;35.53;;
11431;SDS011;5772;50.940;6.782;2022-12-07T17:01:26;34.87;;;33.17;;
11431;SDS011;5772;50.940;6.782;2022-12-07T17:03:52;37.10;;;35.40;;
11431;SDS011;5772;50.940;6.782;2022-12-07T17:06:21;38.57;;;36.77;;
11431;SDS011;5772;50.940;6.782;2022-12-07T17:08:47;34.53;;;32.83;;
11431;SDS011;5772;50.940;6.782;2022-12-07T17:11:13;36.40;;;34.70;;
11431;SDS011;5772;50.940;6.782;2022-12-07T17:13:41;33.83;;;32.17;;
11431;SDS011;5772;50.940;6.782;2022-12-07T17:16:06;34.07;;;32.47;;
11431;SDS011;5772;50.940;6.782;2022-12-07T17:18:32;37.47;;;35.27;;
11431;SDS011;5772;50.940;6.782;2022-12-07T17:21:01;35.50;;;33.70;;
11431;SDS011;5772;50.940;6.782;2022-12-07T17:23:27;33.23;;;31.43;;
11431;SDS011;5772;50.940;6.782;2022-12-07T17:25:53;36.40;;;34.20;;
11431;SDS011;5772;50.940;6.782;2022-12-07T17:28:18;34.83;;;32.70;;
11431;SDS011;5772;50.940;6.782;2022-12-07T17:30:45;36.10;;;33.87;;
11431;SDS011;5772;50.940;6.782;2022-12-07T17:33:10;36.23;;;34.03;;
11431;SDS011;5772;50.940;6.782;2022-12-07T17:35:36;37.90;;;35.50;;
11431;SDS011;5772;50.940;6.782;2022-12-07T17:38:01;35.73;;;33.63;;
11431;SDS011;5772;50.940;6.782;2022-12-07T17:40:26;38.07;;;35.77;;
11431;SDS011;5772;50.940;6.782;2022-12-07T17:42:52;38.37;;;36.10;;
11431;SDS011;5772;50.940;6.782;2022-12-07T17:45:17;36.07;;;33.63;;
11431;SDS011;5772;50.940;6.782;2022-12-07T17:47:44;35.30;;;33.17;;
11431;SDS011;5772;50.940;6.782;2022-12-07T17:50:09;36.60;;;34.40;;
11431;SDS011;5772;50.940;6.782;2022-12-07T17:52:36;36.50;;;34.47;;
11431;SDS011;5772;50.940;6.782;2022-12-07T17:55:02;38.07;;;35.80;;
11431;SDS011;5772;50.940;6.782;2022-12-07T17:57:28;38.87;;;36.63;;
11431;SDS011;5772;50.940;6.782;2022-12-07T17:59:54;39.07;;;36.97;;
11431;SDS011;5772;50.940;6.782;2022-12-07T18:02:19;36.00;;;33.90;;
11431;SDS011;5772;50.940;6.782;2022-12-07T18:04:46;39.10;;;36.80;;
11431;SDS011;5772;50.940;6.782;2022-12-07T18:07:12;39.50;;;37.23;;
11431;SDS011;5772;50.940;6.782;2022-12-07T18:09:37;39.47;;;37.03;;
11431;SDS011;5772;50.940;6.782;2022-12-07T18:12:03;39.23;;;37.07;;
11431;SDS011;5772;50.940;6.782;2022-12-07T18:14:28;42.40;;;39.67;;
11431;SDS011;5772;50.940;6.782;2022-12-07T18:16:54;43.27;;;40.30;;
11431;SDS011;5772;50.940;6.782;2022-12-07T18:19:19;38.30;;;36.13;;
11431;SDS011;5772;50.940;6.782;2022-12-07T18:21:46;40.87;;;38.77;;
11431;SDS011;5772;50.940;6.782;2022-12-07T18:24:12;42.10;;;39.30;;
11431;SDS011;5772;50.940;6.782;2022-12-07T18:26:39;41.07;;;38.53;;
11431;SDS011;5772;50.940;6.782;2022-12-07T18:29:05;41.50;;;39.30;;
11431;SDS011;5772;50.940;6.782;2022-12-07T18:31:30;38.93;;;36.77;;
11431;SDS011;5772;50.940;6.782;2022-12-07T18:33:58;37.23;;;34.90;;
11431;SDS011;5772;50.940;6.782;2022-12-07T18:36:24;38.10;;;35.90;;
11431;SDS011;5772;50.940;6.782;2022-12-07T18:38:51;38.73;;;36.27;;
11431;SDS011;5772;50.940;6.782;2022-12-07T18:41:17;36.70;;;34.57;;
11431;SDS011;5772;50.940;6.782;2022-12-07T18:43:42;39.67;;;37.17;;
11431;SDS011;5772;50.940;6.782;2022-12-07T18:46:09;40.50;;;37.90;;
11431;SDS011;5772;50.940;6.782;2022-12-07T18:48:34;39.97;;;37.20;;
11431;SDS011;5772;50.940;6.782;2022-12-07T18:51:00;43.07;;;40.43;;
11431;SDS011;5772;50.940;6.782;2022-12-07T18:53:27;44.57;;;41.53;;
11431;SDS011;5772;50.940;6.782;2022-12-07T18:56:00;44.80;;;41.73;;
11431;SDS011;5772;50.940;6.782;2022-12-07T18:58:26;43.87;;;40.73;;
11431;SDS011;5772;50.940;6.782;2022-12-07T19:00:53;41.77;;;39.23;;
11431;SDS011;5772;50.940;6.782;2022-12-07T19:03:19;42.47;;;39.33;;
11431;SDS011;5772;50.940;6.782;2022-12-07T19:05:44;41.83;;;39.07;;
11431;SDS011;5772;50.940;6.782;2022-12-07T19:08:10;43.27;;;40.67;;
11431;SDS011;5772;50.940;6.782;2022-12-07T19:10:35;45.90;;;43.27;;
11431;SDS011;5772;50.940;6.782;2022-12-07T19:13:02;46.00;;;42.83;;
11431;SDS011;5772;50.940;6.782;2022-12-07T19:15:27;48.17;;;45.37;;
11431;SDS011;5772;50.940;6.782;2022-12-07T19:17:52;51.63;;;48.10;;
11431;SDS011;5772;50.940;6.782;2022-12-07T19:20:18;51.00;;;47.43;;
11431;SDS011;5772;50.940;6.782;2022-12-07T19:22:43;52.63;;;49.73;;
11431;SDS011;5772;50.940;6.782;2022-12-07T19:25:08;50.47;;;47.50;;
11431;SDS011;5772;50.940;6.782;2022-12-07T19:27:34;48.63;;;45.67;;
11431;SDS011;5772;50.940;6.782;2022-12-07T19:30:01;49.40;;;46.33;;
11431;SDS011;5772;50.940;6.782;2022-12-07T19:32:26;48.73;;;45.73;;
11431;SDS011;5772;50.940;6.782;2022-12-07T19:34:51;50.13;;;46.67;;
11431;SDS011;5772;50.940;6.782;2022-12-07T19:37:17;46.03;;;42.73;;
11431;SDS011;5772;50.940;6.782;2022-12-07T19:39:42;51.10;;;47.83;;
11431;SDS011;5772;50.940;6.782;2022-12-07T19:42:08;51.10;;;47.87;;
11431;SDS011;5772;50.940;6.782;2022-12-07T19:44:33;51.83;;;48.50;;
11431;SDS011;5772;50.940;6.782;2022-12-07T19:47:01;53.27;;;49.60;;
11431;SDS011;5772;50.940;6.782;2022-12-07T19:49:27;48.93;;;45.57;;
11431;SDS011;5772;50.940;6.782;2022-12-07T19:51:53;54.43;;;51.00;;
11431;SDS011;5772;50.940;6.782;2022-12-07T19:54:20;55.13;;;51.47;;
11431;SDS011;5772;50.940;6.782;2022-12-07T19:56:47;53.13;;;50.10;;
11431;SDS011;5772;50.940;6.782;2022-12-07T19:59:14;51.37;;;48.40;;
11431;SDS011;5772;50.940;6.782;2022-12-07T20:01:40;53.63;;;50.27;;
11431;SDS011;5772;50.940;6.782;2022-12-07T20:04:09;51.03;;;47.37;;
11431;SDS011;5772;50.940;6.782;2022-12-07T20:06:36;51.17;;;47.50;;
11431;SDS011;5772;50.940;6.782;2022-12-07T20:09:02;53.10;;;48.87;;
11431;SDS011;5772;50.940;6.782;2022-12-07T20:11:27;52.10;;;48.80;;
11431;SDS011;5772;50.940;6.782;2022-12-07T20:13:53;48.53;;;45.43;;
11431;SDS011;5772;50.940;6.782;2022-12-07T20:16:18;51.13;;;47.67;;
11431;SDS011;5772;50.940;6.782;2022-12-07T20:18:44;52.40;;;48.90;;
11431;SDS011;5772;50.940;6.782;2022-12-07T20:21:11;46.00;;;43.20;;
11431;SDS011;5772;50.940;6.782;2022-12-07T20:23:37;48.60;;;45.47;;
11431;SDS011;5772;50.940;6.782;2022-12-07T20:26:03;44.60;;;41.83;;
11431;SDS011;5772;50.940;6.782;2022-12-07T20:28:29;47.97;;;44.93;;
11431;SDS011;5772;50.940;6.782;2022-12-07T20:30:55;49.53;;;46.53;;
11431;SDS011;5772;50.940;6.782;2022-12-07T20:33:20;50.73;;;47.57;;
11431;SDS011;5772;50.940;6.782;2022-12-07T20:35:46;50.27;;;46.93;;
11431;SDS011;5772;50.940;6.782;2022-12-07T20:38:13;51.33;;;48.30;;
11431;SDS011;5772;50.940;6.782;2022-12-07T20:40:39;54.07;;;50.90;;
11431;SDS011;5772;50.940;6.782;2022-12-07T20:43:10;52.43;;;49.03;;
11431;SDS011;5772;50.940;6.782;2022-12-07T20:45:36;54.70;;;51.47;;
11431;SDS011;5772;50.940;6.782;2022-12-07T20:48:08;55.50;;;51.77;;
11431;SDS011;5772;50.940;6.782;2022-12-07T20:50:33;53.53;;;50.37;;
11431;SDS011;5772;50.940;6.782;2022-12-07T20:52:58;56.07;;;52.40;;
11431;SDS011;5772;50.940;6.782;2022-12-07T20:55:25;56.83;;;53.03;;
11431;SDS011;5772;50.940;6.782;2022-12-07T20:57:51;52.93;;;49.50;;
11431;SDS011;5772;50.940;6.782;2022-12-07T21:00:16;54.03;;;50.70;;
11431;SDS011;5772;50.940;6.782;2022-12-07T21:02:42;53.77;;;50.63;;
11431;SDS011;5772;50.940;6.782;2022-12-07T21:05:08;51.60;;;48.33;;
11431;SDS011;5772;50.940;6.782;2022-12-07T21:07:33;56.37;;;52.70;;
11431;SDS011;5772;50.940;6.782;2022-12-07T21:10:00;56.90;;;53.40;;
11431;SDS011;5772;50.940;6.782;2022-12-07T21:12:28;52.57;;;49.53;;
11431;SDS011;5772;50.940;6.782;2022-12-07T21:14:53;54.07;;;50.83;;
11431;SDS011;5772;50.940;6.782;2022-12-07T21:17:19;56.30;;;52.77;;
11431;SDS011;5772;50.940;6.782;2022-12-07T21:19:44;51.50;;;48.57;;
11431;SDS011;5772;50.940;6.782;2022-12-07T21:22:10;57.40;;;54.00;;
11431;SDS011;5772;50.940;6.782;2022-12-07T21:24:35;58.37;;;54.87;;
11431;SDS011;5772;50.940;6.782;2022-12-07T21:27:01;58.97;;;55.40;;
11431;SDS011;5772;50.940;6.782;2022-12-07T21:29:28;55.80;;;52.53;;
11431;SDS011;5772;50.940;6.782;2022-12-07T21:31:53;56.13;;;52.43;;
11431;SDS011;5772;50.940;6.782;2022-12-07T21:34:18;59.80;;;56.30;;
11431;SDS011;5772;50.940;6.782;2022-12-07T21:36:44;60.23;;;56.63;;
11431;SDS011;5772;50.940;6.782;2022-12-07T21:39:09;59.20;;;55.77;;
11431;SDS011;5772;50.940;6.782;2022-12-07T21:41:34;51.07;;;48.13;;
11431;SDS011;5772;50.940;6.782;2022-12-07T21:44:00;50.97;;;47.97;;
11431;SDS011;5772;50.940;6.782;2022-12-07T21:46:28;52.43;;;49.37;;
11431;SDS011;5772;50.940;6.782;2022-12-07T21:48:55;49.27;;;46.20;;
11431;SDS011;5772;50.940;6.782;2022-12-07T21:51:23;51.30;;;48.07;;
11431;SDS011;5772;50.940;6.782;2022-12-07T21:53:48;48.30;;;45.23;;
11431;SDS011;5772;50.940;6.782;2022-12-07T21:56:16;51.87;;;48.53;;
11431;SDS011;5772;50.940;6.782;2022-12-07T21:58:43;48.80;;;45.87;;
11431;SDS011;5772;50.940;6.782;2022-12-07T22:01:13;51.87;;;48.77;;
11431;SDS011;5772;50.940;6.782;2022-12-07T22:03:41;50.47;;;47.67;;
11431;SDS011;5772;50.940;6.782;2022-12-07T22:06:06;52.43;;;49.37;;
11431;SDS011;5772;50.940;6.782;2022-12-07T22:08:32;52.40;;;48.97;;
11431;SDS011;5772;50.940;6.782;2022-12-07T22:10:59;53.50;;;50.17;;
11431;SDS011;5772;50.940;6.782;2022-12-07T22:13:25;52.37;;;49.37;;
11431;SDS011;5772;50.940;6.782;2022-12-07T22:15:50;51.47;;;47.73;;
11431;SDS011;5772;50.940;6.782;2022-12-07T22:18:15;51.23;;;48.10;;
11431;SDS011;5772;50.940;6.782;2022-12-07T22:20:42;51.40;;;48.40;;
11431;SDS011;5772;50.940;6.782;2022-12-07T22:23:07;51.40;;;48.03;;
11431;SDS011;5772;50.940;6.782;2022-12-07T22:25:33;52.10;;;49.00;;
11431;SDS011;5772;50.940;6.782;2022-12-07T22:27:58;53.43;;;50.00;;
11431;SDS011;5772;50.940;6.782;2022-12-07T22:30:24;55.93;;;52.47;;
11431;SDS011;5772;50.940;6.782;2022-12-07T22:32:49;53.07;;;49.57;;
11431;SDS011;5772;50.940;6.782;2022-12-07T22:35:14;53.47;;;49.97;;
11431;SDS011;5772;50.940;6.782;2022-12-07T22:37:41;49.70;;;46.50;;
11431;SDS011;5772;50.940;6.782;2022-12-07T22:40:07;52.33;;;49.10;;
11431;SDS011;5772;50.940;6.782;2022-12-07T22:42:33;52.03;;;48.57;;
11431;SDS011;5772;50.940;6.782;2022-12-07T22:44:58;50.57;;;47.20;;
11431;SDS011;5772;50.940;6.782;2022-12-07T22:47:24;52.17;;;48.73;;
11431;SDS011;5772;50.940;6.782;2022-12-07T22:49:49;49.43;;;46.17;;
11431;SDS011;5772;50.940;6.782;2022-12-07T22:52:14;49.93;;;46.60;;
11431;SDS011;5772;50.940;6.782;2022-12-07T22:54:41;54.00;;;50.17;;
11431;SDS011;5772;50.940;6.782;2022-12-07T22:57:06;51.60;;;48.07;;
11431;SDS011;5772;50.940;6.782;2022-12-07T22:59:32;50.67;;;47.27;;
11431;SDS011;5772;50.940;6.782;2022-12-07T23:01:58;52.80;;;49.63;;
11431;SDS011;5772;50.940;6.782;2022-12-07T23:04:23;53.53;;;50.37;;
11431;SDS011;5772;50.940;6.782;2022-12-07T23:06:48;51.40;;;48.23;;
11431;SDS011;5772;50.940;6.782;2022-12-07T23:09:14;52.60;;;49.00;;
11431;SDS011;5772;50.940;6.782;2022-12-07T23:11:41;54.47;;;50.83;;
11431;SDS011;5772;50.940;6.782;2022-12-07T23:14:09;56.50;;;52.90;;
11431;SDS011;5772;50.940;6.782;2022-12-07T23:16:35;52.77;;;49.43;;
11431;SDS011;5772;50.940;6.782;2022-12-07T23:19:00;52.90;;;49.43;;
11431;SDS011;5772;50.940;6.782;2022-12-07T23:21:26;53.93;;;50.73;;
11431;SDS011;5772;50.940;6.782;2022-12-07T23:23:51;56.33;;;52.83;;
11431;SDS011;5772;50.940;6.782;2022-12-07T23:26:17;54.13;;;50.87;;
11431;SDS011;5772;50.940;6.782;2022-12-07T23:28:43;52.07;;;48.93;;
11431;SDS011;5772;50.940;6.782;2022-12-07T23:31:10;54.20;;;50.53;;
